createdAt,value
2017-11-19T00:03:24.700Z,4.80
2017-11-19T00:05:52.192Z,4.60
2017-11-19T00:08:19.661Z,4.60
2017-11-19T00:10:47.117Z,4.60
2017-11-19T00:13:14.591Z,4.40
2017-11-19T00:15:42.808Z,4.50
2017-11-19T00:18:10.279Z,4.70
2017-11-19T00:20:37.751Z,4.60
2017-11-19T00:23:05.212Z,4.60
2017-11-19T00:25:32.664Z,4.60
2017-11-19T00:28:00.122Z,4.50
2017-11-19T00:30:27.593Z,4.50
2017-11-19T00:32:55.077Z,4.60
2017-11-19T00:35:23.300Z,4.50
2017-11-19T00:37:50.768Z,4.70
2017-11-19T00:40:18.235Z,4.60
2017-11-19T00:42:45.696Z,4.60
2017-11-19T00:45:13.166Z,4.50
2017-11-19T00:47:40.629Z,4.80
2017-11-19T00:50:08.104Z,4.60
2017-11-19T00:52:36.585Z,4.70
2017-11-19T00:55:04.024Z,4.80
2017-11-19T00:57:31.492Z,4.70
2017-11-19T00:59:59.715Z,4.80
2017-11-19T01:02:27.223Z,4.80
2017-11-19T01:04:55.446Z,4.80
2017-11-19T01:07:22.938Z,4.60
2017-11-19T01:09:50.434Z,4.50
2017-11-19T01:12:17.901Z,4.70
2017-11-19T01:14:45.371Z,4.60
2017-11-19T01:17:12.840Z,4.60
2017-11-19T01:19:40.307Z,4.50
2017-11-19T01:22:07.808Z,4.70
2017-11-19T01:24:36.048Z,4.50
2017-11-19T01:27:03.516Z,4.90
2017-11-19T01:29:30.976Z,4.50
2017-11-19T01:31:58.449Z,4.60
2017-11-19T01:34:25.911Z,4.70
2017-11-19T01:36:53.373Z,4.60
2017-11-19T01:39:21.612Z,4.50
2017-11-19T01:41:49.067Z,4.80
2017-11-19T01:44:16.530Z,4.90
2017-11-19T01:46:43.987Z,4.60
2017-11-19T01:49:11.472Z,4.90
2017-11-19T01:51:38.926Z,4.70
2017-11-19T01:54:06.401Z,4.70
2017-11-19T01:56:34.637Z,4.60
2017-11-19T01:59:02.113Z,4.70
2017-11-19T02:01:29.595Z,4.60
2017-11-19T02:03:57.824Z,4.60
2017-11-19T02:06:25.287Z,4.50
2017-11-19T02:08:52.753Z,4.50
2017-11-19T02:11:21.711Z,4.80
2017-11-19T02:13:49.184Z,4.70
2017-11-19T02:16:16.644Z,4.70
2017-11-19T02:18:44.130Z,4.60
2017-11-19T02:21:11.580Z,4.60
2017-11-19T02:23:39.045Z,4.60
2017-11-19T02:26:06.515Z,4.80
2017-11-19T02:28:34.744Z,4.80
2017-11-19T02:31:02.203Z,4.80
2017-11-19T02:33:29.664Z,4.70
2017-11-19T02:35:57.136Z,4.70
2017-11-19T02:38:24.598Z,4.70
2017-11-19T02:40:52.080Z,4.90
2017-11-19T02:43:19.549Z,5.00
2017-11-19T02:45:47.794Z,4.80
2017-11-19T02:48:15.319Z,4.80
2017-11-19T02:50:42.796Z,5.00
2017-11-19T02:53:10.265Z,5.00
2017-11-19T02:55:38.515Z,4.80
2017-11-19T02:58:05.965Z,4.90
2017-11-19T03:00:33.428Z,4.70
2017-11-19T03:03:00.897Z,4.80
2017-11-19T03:05:28.368Z,4.80
2017-11-19T03:07:55.835Z,5.10
2017-11-19T03:10:24.070Z,5.20
2017-11-19T03:12:51.541Z,5.20
2017-11-19T03:15:19.023Z,4.80
2017-11-19T03:17:46.487Z,4.80
2017-11-19T03:20:14.060Z,4.90
2017-11-19T03:22:42.304Z,5.00
2017-11-19T03:25:09.796Z,5.00
2017-11-19T03:27:37.256Z,4.80
2017-11-19T03:30:04.785Z,4.80
2017-11-19T03:32:32.250Z,4.80
2017-11-19T03:34:59.715Z,4.80
2017-11-19T03:37:27.181Z,4.80
2017-11-19T03:39:54.639Z,4.80
2017-11-19T03:42:22.112Z,4.80
2017-11-19T03:44:50.355Z,4.80
2017-11-19T03:47:17.821Z,4.80
2017-11-19T03:49:45.275Z,5.10
2017-11-19T03:52:12.747Z,4.80
2017-11-19T03:54:40.233Z,4.90
2017-11-19T03:57:08.481Z,4.70
2017-11-19T03:59:35.942Z,4.80
2017-11-19T04:02:03.412Z,4.80
2017-11-19T04:04:31.653Z,4.80
2017-11-19T04:06:59.118Z,4.80
2017-11-19T04:09:26.630Z,4.80
2017-11-19T04:11:55.202Z,4.80
2017-11-19T04:14:23.424Z,5.10
2017-11-19T04:16:50.893Z,5.00
2017-11-19T04:19:18.356Z,4.80
2017-11-19T04:21:45.826Z,4.80
2017-11-19T04:24:13.284Z,4.90
2017-11-19T04:26:40.753Z,5.10
2017-11-19T04:29:08.979Z,4.80
2017-11-19T04:31:36.453Z,5.00
2017-11-19T04:34:03.936Z,4.90
2017-11-19T04:36:31.412Z,5.00
2017-11-19T04:38:59.636Z,5.20
2017-11-19T04:41:27.134Z,5.20
2017-11-19T04:43:54.604Z,5.30
2017-11-19T04:46:22.833Z,5.10
2017-11-19T04:48:50.312Z,5.20
2017-11-19T04:51:17.772Z,4.90
2017-11-19T04:53:45.258Z,5.40
2017-11-19T04:56:13.500Z,5.30
2017-11-19T04:58:40.977Z,5.30
2017-11-19T05:01:08.529Z,5.30
2017-11-19T05:03:36.000Z,5.40
2017-11-19T05:06:04.252Z,5.00
2017-11-19T05:08:31.727Z,5.00
2017-11-19T05:10:59.189Z,5.30
2017-11-19T05:13:26.680Z,5.10
2017-11-19T05:15:54.136Z,5.40
2017-11-19T05:18:21.607Z,5.40
2017-11-19T05:20:49.077Z,5.10
2017-11-19T05:23:16.558Z,5.00
2017-11-19T05:25:44.037Z,4.90
2017-11-19T05:28:11.518Z,5.30
2017-11-19T05:30:39.004Z,5.10
2017-11-19T05:33:06.472Z,4.90
2017-11-19T05:35:33.940Z,5.00
2017-11-19T05:38:01.421Z,5.10
2017-11-19T05:40:28.885Z,5.20
2017-11-19T05:42:56.359Z,5.20
2017-11-19T05:45:24.590Z,5.00
2017-11-19T05:47:52.060Z,5.00
2017-11-19T05:50:21.072Z,5.00
2017-11-19T05:52:49.343Z,5.30
2017-11-19T05:55:16.805Z,5.10
2017-11-19T05:57:44.353Z,5.20
2017-11-19T06:00:11.829Z,4.90
2017-11-19T06:02:40.069Z,5.00
2017-11-19T06:05:07.549Z,5.10
2017-11-19T06:07:35.107Z,4.90
2017-11-19T06:10:02.581Z,5.00
2017-11-19T06:12:30.052Z,5.00
2017-11-19T06:14:58.296Z,5.40
2017-11-19T06:17:25.761Z,5.00
2017-11-19T06:19:53.240Z,5.50
2017-11-19T06:22:21.488Z,5.40
2017-11-19T06:24:48.964Z,5.30
2017-11-19T06:27:16.422Z,5.40
2017-11-19T06:29:44.669Z,4.80
2017-11-19T06:32:12.132Z,4.70
2017-11-19T06:34:39.606Z,4.80
2017-11-19T06:37:07.072Z,4.80
2017-11-19T06:39:35.351Z,4.80
2017-11-19T06:42:02.804Z,4.70
2017-11-19T06:44:30.361Z,4.60
2017-11-19T06:46:57.847Z,4.70
2017-11-19T06:49:26.076Z,4.80
2017-11-19T06:51:53.551Z,4.70
2017-11-19T06:54:21.025Z,4.70
2017-11-19T06:56:49.253Z,5.00
2017-11-19T06:59:16.721Z,4.80
2017-11-19T07:01:44.221Z,4.90
2017-11-19T07:04:12.453Z,4.80
2017-11-19T07:06:39.919Z,4.80
2017-11-19T07:09:07.381Z,4.70
2017-11-19T07:11:34.853Z,4.90
2017-11-19T07:14:02.321Z,4.90
2017-11-19T07:16:30.583Z,4.90
2017-11-19T07:18:58.811Z,5.10
2017-11-19T07:21:26.313Z,4.80
2017-11-19T07:23:53.794Z,4.90
2017-11-19T07:26:22.036Z,4.90
2017-11-19T07:28:49.500Z,5.20
2017-11-19T07:31:16.977Z,5.30
2017-11-19T07:33:44.436Z,5.30
2017-11-19T07:36:12.711Z,5.20
2017-11-19T07:38:40.176Z,5.00
2017-11-19T07:41:08.411Z,5.20
2017-11-19T07:43:35.884Z,5.20
2017-11-19T07:46:03.353Z,5.20
2017-11-19T07:48:30.921Z,5.20
2017-11-19T07:50:59.149Z,5.30
2017-11-19T07:53:26.603Z,5.40
2017-11-19T07:55:54.103Z,5.40
2017-11-19T07:58:21.641Z,5.50
2017-11-19T08:00:49.124Z,5.40
2017-11-19T08:03:17.375Z,5.20
2017-11-19T08:05:44.844Z,5.20
2017-11-19T08:08:12.416Z,5.90
2017-11-19T08:10:39.972Z,5.80
2017-11-19T08:13:07.450Z,5.60
2017-11-19T08:15:35.701Z,5.80
2017-11-19T08:18:03.165Z,5.80
2017-11-19T08:20:30.735Z,5.50
2017-11-19T08:22:58.293Z,5.70
2017-11-19T08:25:25.744Z,5.60
2017-11-19T08:27:53.210Z,5.60
2017-11-19T08:30:20.665Z,5.90
2017-11-19T08:32:48.904Z,5.60
2017-11-19T08:35:16.370Z,5.70
2017-11-19T08:37:43.853Z,5.60
2017-11-19T08:40:11.409Z,5.50
2017-11-19T08:42:38.968Z,5.90
2017-11-19T08:45:07.196Z,5.90
2017-11-19T08:47:34.746Z,5.70
2017-11-19T08:50:02.979Z,5.80
2017-11-19T08:52:30.450Z,6.00
2017-11-19T08:54:57.924Z,5.70
2017-11-19T08:57:26.185Z,6.00
2017-11-19T08:59:53.751Z,6.10
2017-11-19T09:02:21.216Z,5.90
2017-11-19T09:04:49.448Z,5.80
2017-11-19T09:07:16.917Z,5.80
2017-11-19T09:09:44.387Z,5.80
2017-11-19T09:12:11.850Z,5.80
2017-11-19T09:14:39.320Z,5.80
2017-11-19T09:17:07.576Z,6.20
2017-11-19T09:19:35.049Z,6.10
2017-11-19T09:22:02.556Z,6.10
2017-11-19T09:24:30.021Z,6.10
2017-11-19T09:26:57.485Z,6.20
2017-11-19T09:29:24.972Z,6.00
2017-11-19T09:31:52.440Z,6.00
2017-11-19T09:34:19.918Z,6.20
2017-11-19T09:36:48.152Z,6.00
2017-11-19T09:39:15.683Z,6.10
2017-11-19T09:41:43.141Z,5.90
2017-11-19T09:44:10.616Z,5.60
2017-11-19T09:46:38.069Z,5.80
2017-11-19T09:49:05.536Z,5.90
2017-11-19T09:51:33.005Z,5.90
2017-11-19T09:54:00.477Z,6.10
2017-11-19T09:56:27.945Z,6.10
2017-11-19T09:58:55.415Z,6.10
2017-11-19T10:01:23.651Z,6.10
2017-11-19T10:03:51.221Z,6.30
2017-11-19T10:06:18.680Z,6.20
2017-11-19T10:08:46.245Z,6.20
2017-11-19T10:11:13.860Z,6.20
2017-11-19T10:13:41.333Z,6.30
2017-11-19T10:16:08.804Z,6.10
2017-11-19T10:18:36.284Z,6.30
2017-11-19T10:21:03.850Z,6.10
2017-11-19T10:23:31.313Z,6.00
2017-11-19T10:25:59.581Z,6.10
2017-11-19T10:28:27.068Z,6.20
2017-11-19T10:30:55.300Z,6.10
2017-11-19T10:33:22.770Z,6.10
2017-11-19T10:35:50.244Z,6.40
2017-11-19T10:38:18.476Z,6.40
2017-11-19T10:40:45.980Z,6.20
2017-11-19T10:43:14.243Z,6.10
2017-11-19T10:45:41.709Z,6.30
2017-11-19T10:48:09.941Z,6.20
2017-11-19T10:50:37.420Z,5.80
2017-11-19T10:53:05.588Z,5.90
2017-11-19T10:55:33.088Z,6.00
2017-11-19T10:58:01.320Z,6.20
2017-11-19T11:00:28.801Z,6.30
2017-11-19T11:02:57.035Z,6.10
2017-11-19T11:05:24.509Z,6.00
2017-11-19T11:07:51.993Z,5.90
2017-11-19T11:10:19.472Z,5.80
2017-11-19T11:12:47.692Z,6.10
2017-11-19T11:15:15.188Z,6.10
2017-11-19T11:17:42.648Z,5.90
2017-11-19T11:20:10.128Z,6.00
2017-11-19T11:22:38.356Z,6.10
2017-11-19T11:25:05.833Z,6.10
2017-11-19T11:27:33.290Z,5.90
2017-11-19T11:30:00.766Z,5.90
2017-11-19T11:32:28.994Z,6.00
2017-11-19T11:34:56.477Z,5.90
2017-11-19T11:37:23.943Z,6.10
2017-11-19T11:39:51.406Z,6.10
2017-11-19T11:42:18.884Z,6.10
2017-11-19T11:44:47.118Z,6.40
2017-11-19T11:47:14.705Z,6.40
2017-11-19T11:49:42.192Z,6.20
2017-11-19T11:52:09.727Z,6.20
2017-11-19T11:54:37.957Z,6.50
2017-11-19T11:57:05.428Z,6.40
2017-11-19T11:59:32.900Z,6.40
2017-11-19T12:02:00.378Z,6.50
2017-11-19T12:04:28.609Z,6.40
2017-11-19T12:06:56.080Z,6.40
2017-11-19T12:09:23.653Z,6.40
2017-11-19T12:11:51.128Z,6.50
2017-11-19T12:14:19.357Z,6.70
2017-11-19T12:16:46.824Z,6.50
2017-11-19T12:19:14.289Z,6.70
2017-11-19T12:21:41.876Z,6.60
2017-11-19T12:24:09.438Z,6.80
2017-11-19T12:26:36.904Z,6.70
2017-11-19T12:29:05.134Z,6.50
2017-11-19T12:31:32.604Z,6.70
2017-11-19T12:34:00.064Z,6.60
2017-11-19T12:36:27.535Z,6.40
2017-11-19T12:38:55.005Z,6.70
2017-11-19T12:41:22.469Z,6.60
2017-11-19T12:43:50.775Z,6.60
2017-11-19T12:46:18.236Z,6.60
2017-11-19T12:48:45.708Z,6.50
2017-11-19T12:51:13.170Z,6.80
2017-11-19T12:53:40.673Z,6.70
2017-11-19T12:56:08.136Z,6.80
2017-11-19T12:58:35.608Z,6.80
2017-11-19T13:01:03.842Z,6.80
2017-11-19T13:03:31.321Z,6.80
2017-11-19T13:05:58.782Z,6.80
2017-11-19T13:08:26.250Z,6.80
2017-11-19T13:10:54.537Z,6.80
2017-11-19T13:13:22.789Z,6.90
2017-11-19T13:15:50.255Z,6.70
2017-11-19T13:18:18.511Z,6.90
2017-11-19T13:20:45.986Z,7.00
2017-11-19T13:23:13.472Z,6.90
2017-11-19T13:25:40.942Z,6.90
2017-11-19T13:28:08.436Z,6.90
2017-11-19T13:30:35.929Z,6.90
2017-11-19T13:33:04.183Z,7.20
2017-11-19T13:35:31.658Z,6.80
2017-11-19T13:37:59.153Z,6.80
2017-11-19T13:40:26.669Z,7.00
2017-11-19T13:42:54.232Z,6.70
2017-11-19T13:45:21.696Z,6.70
2017-11-19T13:47:49.981Z,6.60
2017-11-19T13:50:18.953Z,6.70
2017-11-19T13:52:46.513Z,6.70
2017-11-19T13:55:13.989Z,6.60
2017-11-19T13:57:42.237Z,6.70
2017-11-19T14:00:09.813Z,6.30
2017-11-19T14:02:37.285Z,6.50
2017-11-19T14:05:05.533Z,6.30
2017-11-19T14:07:33.006Z,6.40
2017-11-19T14:10:00.468Z,6.00
2017-11-19T14:12:28.670Z,5.80
2017-11-19T14:14:56.904Z,5.80
2017-11-19T14:17:24.381Z,5.60
2017-11-19T14:19:51.857Z,5.90
2017-11-19T14:22:19.354Z,5.90
2017-11-19T14:24:47.208Z,5.70
2017-11-19T14:27:14.668Z,5.70
2017-11-19T14:29:42.165Z,5.90
2017-11-19T14:32:09.628Z,5.90
2017-11-19T14:34:37.867Z,6.20
2017-11-19T14:37:05.450Z,6.00
2017-11-19T14:39:32.922Z,6.20
2017-11-19T14:42:00.447Z,6.00
2017-11-19T14:44:27.920Z,6.10
2017-11-19T14:46:55.390Z,6.00
2017-11-19T14:49:22.852Z,6.20
2017-11-19T14:51:50.881Z,6.20
2017-11-19T14:54:18.376Z,6.20
2017-11-19T14:56:45.840Z,6.10
2017-11-19T14:59:13.312Z,6.20
2017-11-19T15:01:41.550Z,6.60
2017-11-19T15:04:09.039Z,6.50
2017-11-19T15:06:36.608Z,6.30
2017-11-19T15:09:04.855Z,6.70
2017-11-19T15:11:32.343Z,6.60
2017-11-19T15:14:01.073Z,6.50
2017-11-19T15:16:28.539Z,6.60
2017-11-19T15:18:56.031Z,6.50
2017-11-19T15:21:23.524Z,6.50
2017-11-19T15:23:51.745Z,6.60
2017-11-19T15:26:19.223Z,6.50
2017-11-19T15:28:46.696Z,6.40
2017-11-19T15:31:15.087Z,6.70
2017-11-19T15:33:42.632Z,6.60
2017-11-19T15:36:10.105Z,6.40
2017-11-19T15:38:38.381Z,6.60
2017-11-19T15:41:06.624Z,6.40
2017-11-19T15:43:34.084Z,6.60
2017-11-19T15:46:01.661Z,6.60
2017-11-19T15:48:29.122Z,6.60
2017-11-19T15:50:56.675Z,6.60
2017-11-19T15:53:24.150Z,6.80
2017-11-19T15:55:52.411Z,6.60
2017-11-19T15:58:20.637Z,6.60
2017-11-19T16:00:48.255Z,6.70
2017-11-19T16:03:15.804Z,6.40
2017-11-19T16:05:43.279Z,6.60
2017-11-19T16:08:11.540Z,7.00
2017-11-19T16:10:39.093Z,6.80
2017-11-19T16:13:06.652Z,6.60
2017-11-19T16:15:34.112Z,6.70
2017-11-19T16:18:01.580Z,6.80
2017-11-19T16:20:29.048Z,6.70
2017-11-19T16:22:57.292Z,6.60
2017-11-19T16:25:24.767Z,6.70
2017-11-19T16:27:52.335Z,6.60
2017-11-19T16:30:20.708Z,6.70
2017-11-19T16:32:48.180Z,6.50
2017-11-19T16:35:16.525Z,6.40
2017-11-19T16:37:44.012Z,6.40
2017-11-19T16:40:11.469Z,6.30
2017-11-19T16:42:39.704Z,6.30
2017-11-19T16:45:07.172Z,6.30
2017-11-19T16:47:34.648Z,6.50
2017-11-19T16:50:02.117Z,6.60
2017-11-19T16:52:30.381Z,6.40
2017-11-19T16:54:57.849Z,6.20
2017-11-19T16:57:25.388Z,6.30
2017-11-19T16:59:52.964Z,6.40
2017-11-19T17:02:20.457Z,6.30
2017-11-19T17:04:47.928Z,6.60
2017-11-19T17:07:15.441Z,6.70
2017-11-19T17:09:42.916Z,6.40
2017-11-19T17:12:11.174Z,6.40
2017-11-19T17:14:38.936Z,6.50
2017-11-19T17:17:06.501Z,6.60
2017-11-19T17:19:35.481Z,6.70
2017-11-19T17:22:03.096Z,6.50
2017-11-19T17:24:30.554Z,6.40
2017-11-19T17:26:58.032Z,6.40
2017-11-19T17:29:25.497Z,6.50
2017-11-19T17:31:52.967Z,6.40
2017-11-19T17:34:20.436Z,6.60
2017-11-19T17:36:47.904Z,6.50
2017-11-19T17:39:15.457Z,6.50
2017-11-19T17:41:43.016Z,6.70
2017-11-19T17:44:10.853Z,6.50
2017-11-19T17:46:38.340Z,6.60
2017-11-19T17:49:05.813Z,6.60
2017-11-19T17:51:33.276Z,6.50
2017-11-19T17:54:01.525Z,6.40
2017-11-19T17:56:28.993Z,6.60
2017-11-19T17:58:56.552Z,6.40
2017-11-19T18:01:24.017Z,6.50
2017-11-19T18:03:51.484Z,6.40
2017-11-19T18:06:18.942Z,6.50
2017-11-19T18:08:46.615Z,6.50
2017-11-19T18:11:15.032Z,6.50
2017-11-19T18:13:42.625Z,6.80
2017-11-19T18:16:10.206Z,6.60
2017-11-19T18:18:37.765Z,6.60
2017-11-19T18:21:05.256Z,6.60
2017-11-19T18:23:32.724Z,6.60
2017-11-19T18:26:00.196Z,6.50
2017-11-19T18:28:27.711Z,6.40
2017-11-19T18:30:55.938Z,6.60
2017-11-19T18:33:23.415Z,6.20
2017-11-19T18:35:50.902Z,6.50
2017-11-19T18:38:19.140Z,6.30
2017-11-19T18:40:46.617Z,6.50
2017-11-19T18:43:14.996Z,6.30
2017-11-19T18:45:42.557Z,6.10
2017-11-19T18:48:10.038Z,6.60
2017-11-19T18:50:38.300Z,6.40
2017-11-19T18:53:05.852Z,6.30
2017-11-19T18:55:33.408Z,6.30
2017-11-19T18:58:00.880Z,6.50
2017-11-19T19:00:28.440Z,6.20
2017-11-19T19:02:56.716Z,6.30
2017-11-19T19:05:24.294Z,6.40
2017-11-19T19:07:52.527Z,6.40
2017-11-19T19:10:20.133Z,6.40
2017-11-19T19:12:48.365Z,5.90
2017-11-19T19:15:15.834Z,6.40
2017-11-19T19:17:43.299Z,6.10
2017-11-19T19:20:11.043Z,6.40
2017-11-19T19:22:38.515Z,6.10
2017-11-19T19:25:05.997Z,6.20
2017-11-19T19:27:33.544Z,6.20
2017-11-19T19:30:01.004Z,5.90
2017-11-19T19:32:28.482Z,6.00
2017-11-19T19:34:56.721Z,6.00
2017-11-19T19:37:24.187Z,6.10
2017-11-19T19:39:51.752Z,6.20
2017-11-19T19:42:19.281Z,6.00
2017-11-19T19:44:46.769Z,6.20
2017-11-19T19:47:14.233Z,5.90
2017-11-19T19:49:41.703Z,6.00
2017-11-19T19:52:10.913Z,6.00
2017-11-19T19:54:38.388Z,6.00
2017-11-19T19:57:05.902Z,6.00
2017-11-19T19:59:33.357Z,6.10
2017-11-19T20:02:00.831Z,5.90
2017-11-19T20:04:29.087Z,5.80
2017-11-19T20:06:56.659Z,5.70
2017-11-19T20:09:24.124Z,5.80
2017-11-19T20:11:52.517Z,6.00
2017-11-19T20:14:20.741Z,6.00
2017-11-19T20:16:48.219Z,6.10
2017-11-19T20:19:15.788Z,5.90
2017-11-19T20:21:43.273Z,6.10
2017-11-19T20:24:11.519Z,6.10
2017-11-19T20:26:38.997Z,6.00
2017-11-19T20:29:07.384Z,6.00
2017-11-19T20:31:35.742Z,5.80
2017-11-19T20:34:03.195Z,6.00
2017-11-19T20:36:30.664Z,6.00
2017-11-19T20:38:58.908Z,5.90
2017-11-19T20:41:26.407Z,5.70
2017-11-19T20:43:54.637Z,5.60
2017-11-19T20:46:22.107Z,5.50
2017-11-19T20:48:49.563Z,5.60
2017-11-19T20:51:17.039Z,5.90
2017-11-19T20:53:46.005Z,6.00
2017-11-19T20:56:14.926Z,6.00
2017-11-19T20:58:42.386Z,5.70
2017-11-19T21:01:09.847Z,5.60
2017-11-19T21:03:38.077Z,5.60
2017-11-19T21:06:05.571Z,5.90
2017-11-19T21:08:33.847Z,6.00
2017-11-19T21:11:01.304Z,5.80
2017-11-19T21:13:28.776Z,5.80
2017-11-19T21:15:56.344Z,5.80
2017-11-19T21:18:24.580Z,5.80
2017-11-19T21:20:52.049Z,5.90
2017-11-19T21:23:19.515Z,5.80
2017-11-19T21:25:46.978Z,5.90
2017-11-19T21:28:18.868Z,6.10
2017-11-19T21:30:43.424Z,5.90
2017-11-19T21:33:10.980Z,6.20
2017-11-19T21:35:38.440Z,5.90
2017-11-19T21:38:05.912Z,6.20
2017-11-19T21:40:33.380Z,5.90
2017-11-19T21:43:01.608Z,5.90
2017-11-19T21:45:29.083Z,6.10
2017-11-19T21:47:56.652Z,6.00
2017-11-19T21:50:24.112Z,6.00
2017-11-19T21:52:51.587Z,5.80
2017-11-19T21:55:19.807Z,5.70
2017-11-19T21:57:47.276Z,5.90
2017-11-19T22:00:14.740Z,5.60
2017-11-19T22:02:42.247Z,5.70
2017-11-19T22:05:10.479Z,5.70
2017-11-19T22:07:38.053Z,5.80
2017-11-19T22:10:05.525Z,5.80
2017-11-19T22:12:33.076Z,5.70
2017-11-19T22:15:00.807Z,5.90
2017-11-19T22:17:28.276Z,5.80
2017-11-19T22:19:55.736Z,5.80
2017-11-19T22:22:23.217Z,6.10
2017-11-19T22:24:50.780Z,5.80
2017-11-19T22:27:18.249Z,5.80
2017-11-19T22:29:46.517Z,5.90
2017-11-19T22:32:13.993Z,5.90
2017-11-19T22:34:42.227Z,6.10
2017-11-19T22:37:09.704Z,5.80
2017-11-19T22:39:37.258Z,5.90
2017-11-19T22:42:04.821Z,6.10
2017-11-19T22:44:32.298Z,5.90
2017-11-19T22:47:00.528Z,5.90
2017-11-19T22:49:28.015Z,5.90
2017-11-19T22:51:55.570Z,5.90
2017-11-19T22:54:23.046Z,5.70
2017-11-19T22:56:51.305Z,5.70
2017-11-19T22:59:19.539Z,5.90
2017-11-19T23:01:47.008Z,5.80
2017-11-19T23:04:14.487Z,5.70
2017-11-19T23:06:41.973Z,5.80
2017-11-19T23:09:10.251Z,6.00
2017-11-19T23:11:38.480Z,6.00
2017-11-19T23:14:05.968Z,6.00
2017-11-19T23:16:34.973Z,5.90
2017-11-19T23:19:02.534Z,5.80
2017-11-19T23:21:31.496Z,6.00
2017-11-19T23:23:59.081Z,5.70
2017-11-19T23:26:26.538Z,5.80
2017-11-19T23:28:54.036Z,5.80
2017-11-19T23:31:21.501Z,5.80
2017-11-19T23:33:49.017Z,6.00
2017-11-19T23:36:38.396Z,5.80
2017-11-19T23:39:06.640Z,5.80
2017-11-19T23:41:34.108Z,6.00
2017-11-19T23:44:01.559Z,5.80
2017-11-19T23:46:29.027Z,6.10
2017-11-19T23:48:56.497Z,6.00
2017-11-19T23:51:23.969Z,5.80
2017-11-19T23:53:52.228Z,6.10
2017-11-19T23:56:19.701Z,6.20
2017-11-19T23:58:47.173Z,6.10
